KFMY/FMY METAR and TAF weather

Enter ICAO airport designator
Station Type Date Time Source
KFMY METAR 2022/06/30 00:53 UTC NOAA

KFMY 300053Z 11004KT 10SM CLR 29/22 A3011 RMK AO2 SLP198 T02890222


Station Type Date Time Source
KFMY Decoded METAR 2022/06/30 00:53 UTC NOAA

FORT MYERS PAGE FIELD, FL, United States (KFMY) 26-35N 081-52W 4M
Jun 29, 2022 - 08:53 PM EDT / 2022.06.30 0053 UTC
Wind: from the ESE (110 degrees) at 5 MPH (4 KT):0
Visibility: 10 mile(s):0
Sky conditions: clear
Temperature: 84.0 F (28.9 C)
Dew Point: 72.0 F (22.2 C)
Relative Humidity: 67%
Pressure (altimeter): 30.11 in. Hg (1019 hPa)
ob: KFMY 300053Z 11004KT 10SM CLR 29/22 A3011 RMK AO2 SLP198 T02890222
cycle: 1

Station Type Date Time Source
KFMY TAF 2022/06/29 18:27 UTC NOAA

TAF KFMY 291725Z 2918/3018 28008KT P6SM VCSH SCT040 BKN200
FM292000 28008KT P6SM VCTS SCT040CB BKN200
TEMPO 2922/3001 VRB15G25KT 5SM TSRA SCT030CB BKN200
FM300300 VRB03KT P6SM FEW030 SCT200
FM301600 23005KT P6SM SCT030 BKN200

Example: see airport list